Time,TemperatureF,DewpointF,PressureIn,WindDirection,WindDirectionDegrees,WindSpeedMPH,WindSpeedGustMPH,Humidity,HourlyPrecipIn,Conditions,Clouds,dailyrainin,SolarRadiationWatts/m^2,SoftwareType,DateUTC
2013-10-13 00:02:00,36.0,29.0,-100.00,ESE,119,5.0,7.0,76,0.00,,,0.00,0.000000,,2013-10-13 07:02:00,
2013-10-13 00:11:00,36.0,29.0,-100.00,ESE,119,5.0,7.0,76,0.00,,,0.00,0.000000,,2013-10-13 07:11:00,
2013-10-13 03:43:00,35.0,27.0,-100.00,ENE,74,3.0,8.0,71,-99.99,,,0.00,0.000000,,2013-10-13 10:43:00,
2013-10-13 03:53:00,35.0,27.0,-100.00,ENE,74,3.0,8.0,71,-99.99,,,0.00,0.000000,,2013-10-13 10:53:00,
2013-10-13 04:03:00,35.0,27.0,-100.00,ENE,74,3.0,8.0,71,-99.99,,,0.00,0.000000,,2013-10-13 11:03:00,
2013-10-13 06:52:00,33.0,30.0,-100.00,SE,146,7.0,9.0,87,-99.99,,,0.00,0.000000,,2013-10-13 13:52:00,
2013-10-13 07:02:00,33.0,30.0,-100.00,SE,146,7.0,9.0,87,-99.99,,,0.00,0.000000,,2013-10-13 14:02:00,
2013-10-13 07:42:00,39.0,30.0,-100.00,SE,137,6.0,10.0,70,-99.99,,,0.00,38.000000,,2013-10-13 14:42:00,
2013-10-13 07:52:00,39.0,30.0,-100.00,SE,137,6.0,10.0,70,-99.99,,,0.00,38.000000,,2013-10-13 14:52:00,
2013-10-13 08:01:00,39.0,30.0,-100.00,SE,137,6.0,10.0,70,-99.99,,,0.00,38.000000,,2013-10-13 15:01:00,
2013-10-13 08:12:00,39.0,30.0,-100.00,SE,137,6.0,10.0,70,-99.99,,,0.00,38.000000,,2013-10-13 15:12:00,
2013-10-13 08:43:00,47.0,33.0,-100.00,SE,132,8.0,11.0,58,0.00,,,0.00,230.000000,,2013-10-13 15:43:00,
2013-10-13 08:54:00,47.0,33.0,-100.00,SE,132,8.0,11.0,58,0.00,,,0.00,230.000000,,2013-10-13 15:54:00,
2013-10-13 09:03:00,47.0,33.0,-100.00,SE,132,8.0,11.0,58,0.00,,,0.00,230.000000,,2013-10-13 16:03:00,
2013-10-13 09:12:00,47.0,33.0,-100.00,SE,132,8.0,11.0,58,0.00,,,0.00,230.000000,,2013-10-13 16:12:00,
2013-10-13 09:43:00,52.0,32.0,-100.00,South,188,10.0,20.0,47,0.00,,,0.00,431.000000,,2013-10-13 16:43:00,
2013-10-13 09:54:00,52.0,32.0,-100.00,South,188,10.0,20.0,47,0.00,,,0.00,431.000000,,2013-10-13 16:54:00,
2013-10-13 10:03:00,52.0,32.0,-100.00,South,188,10.0,20.0,47,0.00,,,0.00,431.000000,,2013-10-13 17:03:00,
2013-10-13 10:12:00,52.0,32.0,-100.00,South,188,10.0,20.0,47,0.00,,,0.00,431.000000,,2013-10-13 17:12:00,
2013-10-13 10:43:00,54.0,31.0,-100.00,SSW,204,13.0,26.0,41,0.00,,,0.00,596.000000,,2013-10-13 17:43:00,
2013-10-13 10:52:00,54.0,31.0,-100.00,SSW,204,13.0,26.0,41,0.00,,,0.00,596.000000,,2013-10-13 17:52:00,
2013-10-13 11:02:00,54.0,31.0,-100.00,SSW,204,13.0,26.0,41,0.00,,,0.00,596.000000,,2013-10-13 18:02:00,
2013-10-13 11:12:00,54.0,31.0,-100.00,SSW,204,13.0,26.0,41,0.00,,,0.00,596.000000,,2013-10-13 18:12:00,
2013-10-13 11:42:00,55.0,31.0,-100.00,SSW,199,15.0,24.0,39,0.00,,,0.00,692.000000,,2013-10-13 18:42:00,
2013-10-13 11:52:00,55.0,31.0,-100.00,SSW,199,15.0,24.0,39,0.00,,,0.00,692.000000,,2013-10-13 18:52:00,
2013-10-13 12:01:00,55.0,31.0,-100.00,SSW,199,15.0,24.0,39,0.00,,,0.00,692.000000,,2013-10-13 19:01:00,
2013-10-13 12:11:00,55.0,31.0,-100.00,SSW,199,15.0,24.0,39,0.00,,,0.00,692.000000,,2013-10-13 19:11:00,
2013-10-13 12:42:00,56.0,32.0,-100.00,SSW,207,16.0,28.0,40,0.00,,,0.00,588.000000,,2013-10-13 19:42:00,
2013-10-13 12:52:00,56.0,32.0,-100.00,SSW,207,16.0,28.0,40,0.00,,,0.00,588.000000,,2013-10-13 19:52:00,
2013-10-13 13:01:00,56.0,32.0,-100.00,SSW,207,16.0,28.0,40,0.00,,,0.00,588.000000,,2013-10-13 20:01:00,
2013-10-13 13:11:00,56.0,32.0,-100.00,SSW,207,16.0,28.0,40,0.00,,,0.00,588.000000,,2013-10-13 20:11:00,
2013-10-13 13:43:00,57.0,32.0,-100.00,SSW,199,14.0,25.0,38,0.00,,,0.00,600.000000,,2013-10-13 20:43:00,
2013-10-13 13:52:00,57.0,32.0,-100.00,SSW,199,14.0,25.0,38,0.00,,,0.00,600.000000,,2013-10-13 20:52:00,
2013-10-13 14:02:00,57.0,32.0,-100.00,SSW,199,14.0,25.0,38,0.00,,,0.00,600.000000,,2013-10-13 21:02:00,
2013-10-13 14:11:00,57.0,32.0,-100.00,SSW,199,14.0,25.0,38,0.00,,,0.00,600.000000,,2013-10-13 21:11:00,
2013-10-13 14:44:00,58.0,32.0,-100.00,SSW,194,15.0,30.0,37,0.00,,,-99.99,678.000000,,2013-10-13 21:44:00,
2013-10-13 14:55:00,58.0,32.0,-100.00,SSW,194,15.0,30.0,37,0.00,,,-99.99,678.000000,,2013-10-13 21:55:00,
2013-10-13 15:03:00,58.0,32.0,-100.00,SSW,194,15.0,30.0,37,0.00,,,-99.99,678.000000,,2013-10-13 22:03:00,
2013-10-13 15:13:00,58.0,32.0,-100.00,SSW,194,15.0,30.0,37,0.00,,,-99.99,678.000000,,2013-10-13 22:13:00,
2013-10-13 15:43:00,58.0,30.0,-100.00,SSW,205,16.0,30.0,34,0.00,,,0.00,576.000000,,2013-10-13 22:43:00,
2013-10-13 15:53:00,58.0,30.0,-100.00,SSW,205,16.0,30.0,34,0.00,,,0.00,576.000000,,2013-10-13 22:53:00,
2013-10-13 16:02:00,58.0,30.0,-100.00,SSW,205,16.0,30.0,34,0.00,,,0.00,576.000000,,2013-10-13 23:02:00,
2013-10-13 16:12:00,58.0,30.0,-100.00,SSW,205,16.0,30.0,34,0.00,,,0.00,576.000000,,2013-10-13 23:12:00,
2013-10-13 16:42:00,57.0,27.0,-100.00,SSW,199,15.0,27.0,32,0.00,,,0.00,398.000000,,2013-10-13 23:42:00,
2013-10-13 16:52:00,57.0,27.0,-100.00,SSW,199,15.0,27.0,32,0.00,,,0.00,398.000000,,2013-10-13 23:52:00,
2013-10-13 17:01:00,57.0,27.0,-100.00,SSW,199,15.0,27.0,32,0.00,,,0.00,398.000000,,2013-10-14 00:01:00,
2013-10-13 17:12:00,57.0,27.0,-100.00,SSW,199,15.0,27.0,32,0.00,,,0.00,398.000000,,2013-10-14 00:12:00,
2013-10-13 17:42:00,54.0,26.0,-100.00,SW,219,15.0,25.0,34,0.00,,,0.00,183.000000,,2013-10-14 00:42:00,
2013-10-13 17:52:00,54.0,26.0,-100.00,SW,219,15.0,25.0,34,0.00,,,0.00,183.000000,,2013-10-14 00:52:00,
2013-10-13 18:02:00,54.0,26.0,-100.00,SW,219,15.0,25.0,34,0.00,,,0.00,183.000000,,2013-10-14 01:02:00,
2013-10-13 18:11:00,54.0,26.0,-100.00,SW,219,15.0,25.0,34,0.00,,,0.00,183.000000,,2013-10-14 01:11:00,
2013-10-13 18:42:00,49.0,26.0,-100.00,WSW,237,8.0,24.0,41,0.00,,,0.00,25.000000,,2013-10-14 01:42:00,
2013-10-13 18:52:00,49.0,26.0,-100.00,WSW,237,8.0,24.0,41,0.00,,,0.00,25.000000,,2013-10-14 01:52:00,
2013-10-13 19:02:00,49.0,26.0,-100.00,WSW,237,8.0,24.0,41,0.00,,,0.00,25.000000,,2013-10-14 02:02:00,
2013-10-13 19:11:00,49.0,26.0,-100.00,WSW,237,8.0,24.0,41,0.00,,,0.00,25.000000,,2013-10-14 02:11:00,
2013-10-13 19:42:00,45.0,23.0,-100.00,WSW,241,4.0,13.0,41,0.00,,,0.00,0.000000,,2013-10-14 02:42:00,
2013-10-13 19:52:00,45.0,23.0,-100.00,WSW,241,4.0,13.0,41,0.00,,,0.00,0.000000,,2013-10-14 02:52:00,
2013-10-13 20:02:00,45.0,23.0,-100.00,WSW,241,4.0,13.0,41,0.00,,,0.00,0.000000,,2013-10-14 03:02:00,
2013-10-13 20:12:00,45.0,23.0,-100.00,WSW,241,4.0,13.0,41,0.00,,,0.00,0.000000,,2013-10-14 03:12:00,
2013-10-13 22:43:00,42.0,27.0,-100.00,SW,226,3.0,6.0,56,-99.99,,,0.00,0.000000,,2013-10-14 05:43:00,
2013-10-13 22:52:00,42.0,27.0,-100.00,SW,226,3.0,6.0,56,-99.99,,,0.00,0.000000,,2013-10-14 05:52:00,
2013-10-13 23:02:00,42.0,27.0,-100.00,SW,226,3.0,6.0,56,-99.99,,,0.00,0.000000,,2013-10-14 06:02:00,
2013-10-13 23:12:00,42.0,27.0,-100.00,SW,226,3.0,6.0,56,-99.99,,,0.00,0.000000,,2013-10-14 06:12:00,
2013-10-13 23:42:00,40.0,28.0,-100.00,West,266,2.0,5.0,61,0.00,,,0.00,0.000000,,2013-10-14 06:42:00,
2013-10-13 23:52:00,40.0,28.0,-100.00,West,266,2.0,5.0,61,0.00,,,0.00,0.000000,,2013-10-14 06:52:00,